Time;durP1;ratioP1;P1;durP2;ratioP2;P2;SDS_P1;SDS_P2;PMS_P1;PMS_P2;Temp;Humidity;BMP_temperature;BMP_pressure;BME280_temperature;BME280_humidity;BME280_pressure;Samples;Min_cycle;Max_cycle;Signal;HPM_P1;HPM_P2
2023/05/29 00:01:26;;;;;;;10.13;4.67;;;14.90;99.90;;;15.73;100.00;98299.94;5019944;28;20565;-78
2023/05/29 00:03:54;;;;;;;7.00;4.33;;;14.90;99.90;;;15.65;100.00;98308.94;5021203;28;20909;-78
2023/05/29 00:06:25;;;;;;;7.47;4.87;;;14.90;99.90;;;15.58;100.00;98298.41;5022343;28;20501;-77
2023/05/29 00:08:54;;;;;;;7.00;4.33;;;14.90;99.90;;;15.52;100.00;98299.25;5021826;28;20493;-78
2023/05/29 00:11:23;;;;;;;10.50;4.80;;;14.80;99.90;;;15.45;100.00;98297.66;5024743;28;21368;-77
2023/05/29 00:13:52;;;;;;;10.43;5.20;;;14.80;99.90;;;15.42;100.00;98298.88;5021808;28;20516;-78
2023/05/29 00:16:21;;;;;;;12.07;4.00;;;14.70;99.90;;;15.41;100.00;98292.00;5022877;28;20548;-77
2023/05/29 00:18:51;;;;;;;8.77;4.70;;;14.60;99.90;;;15.39;100.00;98287.97;5021489;28;20462;-77
2023/05/29 00:21:20;;;;;;;8.03;4.97;;;14.60;99.90;;;15.35;100.00;98292.84;5021563;28;20465;-78
2023/05/29 00:23:50;;;;;;;8.70;4.20;;;14.60;99.90;;;15.33;100.00;98294.09;5019384;28;20509;-78
2023/05/29 00:26:19;;;;;;;8.00;4.77;;;14.50;99.90;;;15.30;100.00;98292.69;5019587;28;20473;-78
2023/05/29 00:28:47;;;;;;;13.90;4.60;;;14.50;99.90;;;15.30;100.00;98284.78;5021787;28;20482;-77
2023/05/29 00:31:16;;;;;;;8.30;4.60;;;14.40;99.90;;;15.25;100.00;98287.22;5021932;28;20493;-77
2023/05/29 00:33:45;;;;;;;7.20;3.77;;;14.40;99.90;;;15.22;100.00;98287.66;5022038;28;20505;-77
2023/05/29 00:36:14;;;;;;;6.47;4.10;;;14.40;99.90;;;15.19;100.00;98295.16;5020433;28;20479;-78
2023/05/29 00:38:43;;;;;;;11.00;4.60;;;14.40;99.90;;;15.16;100.00;98293.78;5020862;28;20481;-78
2023/05/29 00:41:16;;;;;;;9.70;4.37;;;14.40;99.90;;;15.15;100.00;98286.06;5019738;28;20470;-77
2023/05/29 00:43:45;;;;;;;7.83;3.70;;;14.30;99.90;;;15.11;100.00;98290.94;5021523;28;21008;-77
2023/05/29 00:46:17;;;;;;;7.57;3.90;;;14.30;99.90;;;15.08;100.00;98296.63;5021147;28;20469;-77
2023/05/29 00:48:46;;;;;;;7.23;4.27;;;14.30;99.90;;;15.03;100.00;98291.16;5023185;28;20502;-77
2023/05/29 00:51:16;;;;;;;6.87;4.50;;;14.20;99.90;;;14.99;100.00;98290.00;5021298;28;20503;-78
2023/05/29 00:53:46;;;;;;;7.43;4.10;;;14.20;99.90;;;14.97;100.00;98290.19;5020719;28;20967;-77
2023/05/29 00:56:17;;;;;;;10.97;4.50;;;14.10;99.90;;;14.96;100.00;98293.84;5018892;28;21815;-78
2023/05/29 00:58:46;;;;;;;7.20;3.73;;;14.10;99.90;;;14.91;100.00;98295.50;5019927;28;20458;-78
2023/05/29 01:01:15;;;;;;;7.83;4.80;;;14.10;99.90;;;14.85;100.00;98289.25;5019720;28;20466;-77
2023/05/29 01:03:45;;;;;;;10.10;4.37;;;14.10;99.90;;;14.82;100.00;98284.38;5020308;28;20485;-78
2023/05/29 01:06:13;;;;;;;6.37;3.97;;;14.00;99.90;;;14.81;100.00;98288.03;5018318;28;20502;-77
2023/05/29 01:08:42;;;;;;;11.93;4.60;;;14.00;99.90;;;14.80;100.00;98285.59;5019744;28;20502;-77
2023/05/29 01:11:26;;;;;;;8.07;4.40;;;14.00;99.90;;;14.76;100.00;98287.84;5018036;28;20520;-78
2023/05/29 01:14:01;;;;;;;7.27;3.80;;;13.90;99.90;;;14.72;100.00;98289.25;5022186;28;20480;-78
2023/05/29 01:16:39;;;;;;;7.37;4.00;;;13.90;99.90;;;14.69;100.00;98283.59;5020057;28;20469;-77
2023/05/29 01:19:24;;;;;;;6.40;4.03;;;13.80;99.90;;;14.67;100.00;98296.16;5020646;28;20502;-77
2023/05/29 01:22:10;;;;;;;7.30;3.97;;;13.80;99.90;;;14.63;100.00;98287.06;5021440;28;20463;-78
2023/05/29 01:24:50;;;;;;;5.97;3.67;;;13.80;99.90;;;14.60;100.00;98294.38;5018898;28;20469;-77
2023/05/29 01:27:25;;;;;;;12.63;4.40;;;13.80;99.90;;;14.57;100.00;98280.81;5017702;28;20831;-78
2023/05/29 01:29:59;;;;;;;10.87;4.20;;;13.70;99.90;;;14.50;100.00;98286.09;5017453;28;20503;-78
2023/05/29 01:32:29;;;;;;;9.43;4.93;;;13.70;99.90;;;14.46;100.00;98292.78;5019450;28;20934;-78
2023/05/29 01:34:58;;;;;;;6.37;4.20;;;13.60;99.90;;;14.41;100.00;98289.94;5020146;28;20502;-78
2023/05/29 01:37:27;;;;;;;8.20;3.83;;;13.60;99.90;;;14.37;100.00;98296.63;5020528;28;21160;-78
2023/05/29 01:39:56;;;;;;;6.70;3.17;;;13.60;99.90;;;14.34;100.00;98293.59;5020419;28;20815;-78
2023/05/29 01:42:29;;;;;;;6.23;3.57;;;13.50;99.90;;;14.33;100.00;98297.22;5017361;28;20462;-78
2023/05/29 01:44:59;;;;;;;12.53;4.23;;;13.50;99.90;;;14.33;100.00;98295.41;5017716;28;20549;-78
2023/05/29 01:47:28;;;;;;;9.27;4.10;;;13.50;99.90;;;14.31;100.00;98294.78;5018975;28;20524;-78
2023/05/29 01:49:58;;;;;;;10.13;4.33;;;13.50;99.90;;;14.28;100.00;98289.13;5020087;28;20486;-77
2023/05/29 01:52:27;;;;;;;6.67;4.10;;;13.40;99.90;;;14.26;100.00;98297.25;5018830;28;21187;-77
2023/05/29 01:54:56;;;;;;;8.80;4.20;;;13.40;99.90;;;14.25;100.00;98294.78;5019938;28;20964;-77
2023/05/29 01:57:27;;;;;;;8.63;4.10;;;13.40;99.90;;;14.15;100.00;98295.22;5017334;28;20549;-77
2023/05/29 01:59:57;;;;;;;6.17;3.73;;;13.40;99.90;;;14.09;100.00;98291.56;5017888;28;20878;-77
2023/05/29 02:02:25;;;;;;;6.20;3.93;;;13.30;99.90;;;14.07;100.00;98292.78;5017144;28;20471;-78
2023/05/29 02:04:55;;;;;;;12.80;3.53;;;13.30;99.90;;;14.02;100.00;98290.75;5017582;28;20501;-77
2023/05/29 02:07:24;;;;;;;10.30;3.90;;;13.30;99.90;;;13.99;100.00;98296.41;5017620;28;20894;-78
2023/05/29 02:09:52;;;;;;;7.33;3.87;;;13.20;99.90;;;13.97;100.00;98292.38;5018162;28;20497;-78
2023/05/29 02:12:21;;;;;;;10.03;3.43;;;13.20;99.90;;;13.94;100.00;98292.78;5020921;28;20466;-78
2023/05/29 02:14:52;;;;;;;11.03;4.47;;;13.20;99.90;;;13.91;100.00;98290.56;5022421;28;20478;-78
2023/05/29 02:17:21;;;;;;;7.53;3.73;;;13.10;99.90;;;13.88;100.00;98288.34;5016070;28;20839;-78
2023/05/29 02:19:50;;;;;;;6.93;4.10;;;13.10;99.90;;;13.86;100.00;98291.16;5020592;28;20966;-77
2023/05/29 02:22:19;;;;;;;12.23;4.33;;;13.10;99.90;;;13.82;100.00;98284.69;5020728;28;20474;-77
2023/05/29 02:24:47;;;;;;;7.07;3.90;;;13.00;99.90;;;13.79;100.00;98273.75;5019842;28;20471;-78
2023/05/29 02:27:16;;;;;;;14.30;4.17;;;13.00;99.90;;;13.78;100.00;98277.44;5020693;28;20467;-78
2023/05/29 02:29:46;;;;;;;10.23;3.90;;;13.00;99.90;;;13.75;100.00;98268.09;5020637;28;20570;-78
2023/05/29 02:32:15;;;;;;;7.60;4.07;;;12.90;99.90;;;13.71;100.00;98273.97;5019754;28;20470;-78
2023/05/29 02:34:45;;;;;;;6.20;3.77;;;12.90;99.90;;;13.69;100.00;98282.06;5020165;28;20462;-77
2023/05/29 02:37:13;;;;;;;13.47;4.40;;;12.90;99.90;;;13.66;100.00;98284.28;5018804;28;20477;-77
2023/05/29 02:39:44;;;;;;;6.33;3.73;;;12.90;99.90;;;13.61;100.00;98280.41;5021269;28;20505;-77
2023/05/29 02:42:12;;;;;;;7.07;3.70;;;12.90;99.90;;;13.56;100.00;98287.31;5018494;28;20992;-77
2023/05/29 02:44:40;;;;;;;7.07;3.97;;;12.80;99.90;;;13.51;100.00;98282.63;5018184;28;20532;-77
2023/05/29 02:47:10;;;;;;;9.07;3.40;;;12.80;99.90;;;13.47;100.00;98284.03;5022116;28;20494;-78
2023/05/29 02:49:41;;;;;;;7.27;3.73;;;12.80;99.90;;;13.43;100.00;98276.78;5021343;28;20493;-78
2023/05/29 02:52:11;;;;;;;8.20;3.80;;;12.70;99.90;;;13.39;100.00;98276.38;5019827;28;20465;-78
2023/05/29 02:54:39;;;;;;;9.03;3.67;;;12.70;99.90;;;13.38;100.00;98282.63;5017921;28;21018;-77
2023/05/29 02:57:09;;;;;;;9.03;3.83;;;12.60;99.90;;;13.36;100.00;98284.59;5018585;28;20470;-77
2023/05/29 02:59:40;;;;;;;5.00;3.50;;;12.60;99.90;;;13.36;100.00;98283.81;5017543;28;20819;-78
2023/05/29 03:02:09;;;;;;;5.27;4.07;;;12.60;99.90;;;13.34;100.00;98281.38;5015356;28;20471;-77
2023/05/29 03:04:39;;;;;;;10.67;3.67;;;12.60;99.90;;;13.31;100.00;98284.41;5015208;28;21305;-76
2023/05/29 03:07:09;;;;;;;8.87;3.47;;;12.50;99.90;;;13.28;100.00;98282.19;5016722;28;20471;-78
2023/05/29 03:09:38;;;;;;;4.90;3.40;;;12.50;99.90;;;13.22;100.00;98277.72;5017883;28;20523;-78
2023/05/29 03:12:08;;;;;;;7.10;4.00;;;12.50;99.90;;;13.20;100.00;98284.16;5018245;28;20477;-77
2023/05/29 03:14:37;;;;;;;15.23;3.43;;;12.50;99.90;;;13.20;100.00;98290.22;5017489;28;20467;-77
2023/05/29 03:17:06;;;;;;;5.30;3.20;;;12.40;99.90;;;13.18;100.00;98286.19;5015665;28;21135;-78
2023/05/29 03:19:36;;;;;;;5.23;3.40;;;12.40;99.90;;;13.14;100.00;98285.78;5014586;28;20482;-75
2023/05/29 03:22:07;;;;;;;6.63;3.60;;;12.40;99.90;;;13.08;100.00;98281.28;5016123;28;20454;-78
2023/05/29 03:24:36;;;;;;;6.30;3.80;;;12.40;99.90;;;13.01;100.00;98289.16;5016694;28;21069;-77
2023/05/29 03:27:05;;;;;;;6.67;3.97;;;12.40;99.90;;;12.99;100.00;98277.19;5018735;28;20560;-78
2023/05/29 03:29:33;;;;;;;11.03;4.00;;;12.30;99.90;;;13.00;100.00;98289.31;5019504;28;20474;-78
2023/05/29 03:32:03;;;;;;;6.17;3.27;;;12.20;99.90;;;13.04;100.00;98293.19;5015771;28;21005;-77
2023/05/29 03:34:34;;;;;;;5.13;4.10;;;12.30;99.90;;;13.05;100.00;98292.19;5017921;28;20817;-78
2023/05/29 03:37:03;;;;;;;10.37;3.63;;;12.30;99.90;;;13.06;100.00;98296.41;5021332;28;20477;-78
2023/05/29 03:39:34;;;;;;;6.93;3.70;;;12.20;99.90;;;13.01;100.00;98302.28;5017156;28;21024;-78
2023/05/29 03:42:05;;;;;;;4.17;3.23;;;12.20;99.90;;;12.94;100.00;98296.19;5018514;28;20553;-77
2023/05/29 03:44:33;;;;;;;5.30;3.27;;;12.20;99.90;;;12.89;100.00;98310.88;5019155;28;20469;-77
2023/05/29 03:47:02;;;;;;;8.10;3.57;;;12.20;99.90;;;12.86;100.00;98306.84;5001850;28;20467;-77
2023/05/29 03:49:31;;;;;;;6.47;3.30;;;12.20;99.90;;;12.85;100.00;98302.59;5019295;28;20469;-78
2023/05/29 03:51:59;;;;;;;8.77;4.00;;;12.10;99.90;;;12.86;100.00;98311.28;5017052;28;20481;-78
2023/05/29 03:54:29;;;;;;;5.27;3.23;;;12.10;99.90;;;12.89;100.00;98313.50;5014180;28;20983;-78
2023/05/29 03:56:59;;;;;;;8.50;4.70;;;12.10;99.90;;;12.90;100.00;98312.50;5016180;28;20465;-75
2023/05/29 03:59:28;;;;;;;7.60;4.00;;;12.10;99.90;;;12.88;100.00;98317.94;5018481;28;20469;-78
2023/05/29 04:01:57;;;;;;;5.20;3.33;;;12.10;99.90;;;12.88;100.00;98319.75;5019026;28;20469;-78
2023/05/29 04:04:27;;;;;;;7.53;3.37;;;12.10;99.90;;;12.84;100.00;98321.16;5018110;28;20519;-77
2023/05/29 04:06:56;;;;;;;5.40;3.83;;;12.10;99.90;;;12.81;100.00;98319.72;5019326;28;20466;-77
2023/05/29 04:09:25;;;;;;;5.50;4.17;;;12.00;99.90;;;12.81;100.00;98324.16;5017687;28;20544;-77
2023/05/29 04:11:55;;;;;;;7.43;3.50;;;12.00;99.90;;;12.82;100.00;98329.22;5017726;28;20501;-78
2023/05/29 04:14:26;;;;;;;5.97;3.50;;;12.10;99.90;;;12.82;100.00;98328.41;4984852;28;20461;-77
2023/05/29 04:16:54;;;;;;;6.90;3.90;;;12.00;99.90;;;12.81;100.00;98332.84;5016684;28;20800;-77
2023/05/29 04:19:23;;;;;;;5.00;3.17;;;12.00;99.90;;;12.80;100.00;98341.75;5019962;28;20478;-77
2023/05/29 04:21:52;;;;;;;10.70;4.27;;;12.00;99.90;;;12.80;100.00;98352.25;5018879;28;20481;-76
2023/05/29 04:24:21;;;;;;;12.53;3.63;;;12.00;99.90;;;12.80;100.00;98351.44;5018717;28;20478;-77
2023/05/29 04:26:51;;;;;;;5.60;3.10;;;12.10;99.90;;;12.79;100.00;98357.66;5015934;28;20961;-77
2023/05/29 04:29:19;;;;;;;8.13;3.50;;;12.00;99.90;;;12.76;100.00;98356.25;5017154;28;20470;-76
2023/05/29 04:31:53;;;;;;;11.00;5.97;;;12.00;99.90;;;12.74;100.00;98362.69;5016297;28;20513;-78
2023/05/29 04:34:22;;;;;;;6.10;3.60;;;12.00;99.90;;;12.72;100.00;98357.63;5016645;28;20489;-77
2023/05/29 04:36:51;;;;;;;12.53;4.47;;;12.00;99.90;;;12.73;100.00;98359.25;5016535;28;20467;-78
2023/05/29 04:39:22;;;;;;;7.13;3.47;;;12.00;99.90;;;12.75;100.00;98364.31;4998785;28;20499;-79
2023/05/29 04:41:51;;;;;;;8.90;4.20;;;12.00;99.90;;;12.78;100.00;98361.28;5013124;28;20549;-78
2023/05/29 04:44:19;;;;;;;5.70;3.60;;;12.00;99.90;;;12.80;100.00;98364.53;5019831;28;20551;-78
2023/05/29 04:46:51;;;;;;;7.57;3.53;;;12.00;99.90;;;12.83;100.00;98362.34;5020311;28;20549;-79
2023/05/29 04:49:22;;;;;;;7.40;3.60;;;12.10;99.90;;;12.85;100.00;98362.13;5018577;28;20547;-79
2023/05/29 04:51:52;;;;;;;6.13;3.50;;;12.10;99.90;;;12.88;100.00;98367.00;5017585;28;20505;-79
2023/05/29 04:54:23;;;;;;;6.90;4.00;;;12.10;99.90;;;12.89;100.00;98364.19;5019770;28;20471;-78
2023/05/29 04:56:52;;;;;;;8.80;4.53;;;12.10;99.90;;;12.93;100.00;98368.06;5019015;28;20463;-78
2023/05/29 04:59:21;;;;;;;5.70;3.70;;;12.10;99.90;;;12.98;100.00;98365.63;5018608;28;20461;-78
2023/05/29 05:01:51;;;;;;;11.10;4.07;;;12.20;99.90;;;13.03;100.00;98379.00;5021604;28;20549;-78
2023/05/29 05:04:22;;;;;;;10.47;4.20;;;12.20;99.90;;;13.09;100.00;98372.19;5021456;28;21959;-78
2023/05/29 05:06:52;;;;;;;7.30;3.60;;;12.30;99.90;;;13.10;100.00;98373.81;5020536;28;20502;-78
2023/05/29 05:09:21;;;;;;;9.10;3.13;;;12.30;99.90;;;13.14;100.00;98374.25;5019418;28;20462;-78
2023/05/29 05:11:50;;;;;;;5.80;4.70;;;12.30;99.90;;;13.17;100.00;98379.91;5017269;28;20498;-78
2023/05/29 05:14:18;;;;;;;11.93;4.87;;;12.40;99.90;;;13.20;100.00;98369.00;5019274;28;20480;-76
2023/05/29 05:16:47;;;;;;;8.07;4.87;;;12.40;99.90;;;13.26;100.00;98376.09;5018001;28;20493;-78
2023/05/29 05:19:16;;;;;;;9.23;4.30;;;12.50;99.90;;;13.31;100.00;98371.09;5016640;28;20470;-77
2023/05/29 05:21:47;;;;;;;7.50;3.97;;;12.50;99.90;;;13.39;100.00;98373.56;5020324;28;20524;-77
2023/05/29 05:24:17;;;;;;;8.00;3.00;;;12.60;99.90;;;13.48;100.00;98371.53;5018687;28;20509;-77
2023/05/29 05:26:45;;;;;;;4.07;2.80;;;12.60;99.90;;;13.56;100.00;98380.06;5020295;28;20470;-77
2023/05/29 05:29:14;;;;;;;8.40;3.30;;;12.70;99.90;;;13.65;100.00;98372.81;5018721;28;20610;-77
2023/05/29 05:31:44;;;;;;;16.93;3.67;;;12.80;99.90;;;13.74;100.00;98370.81;5018569;28;20516;-78
2023/05/29 05:34:13;;;;;;;6.53;3.03;;;12.90;99.90;;;13.83;100.00;98369.63;5019264;28;20731;-77
2023/05/29 05:36:41;;;;;;;4.33;2.93;;;13.00;99.90;;;13.92;100.00;98378.94;5018559;28;20565;-77
2023/05/29 05:39:11;;;;;;;6.50;3.07;;;13.00;99.90;;;14.00;100.00;98387.44;5019130;28;20979;-77
2023/05/29 05:41:40;;;;;;;6.00;3.00;;;13.20;99.90;;;14.09;100.00;98396.75;5017937;28;20565;-77
2023/05/29 05:44:08;;;;;;;6.93;2.90;;;13.20;99.90;;;14.19;100.00;98385.88;5018351;28;20465;-78
2023/05/29 05:46:37;;;;;;;7.00;3.20;;;13.40;99.90;;;14.29;100.00;98385.47;5018448;28;20474;-78
2023/05/29 05:49:05;;;;;;;8.50;3.10;;;13.50;99.90;;;14.37;100.00;98385.28;5016582;28;20466;-78
2023/05/29 05:51:35;;;;;;;9.80;3.50;;;13.60;99.90;;;14.45;100.00;98383.25;5017904;28;20501;-78
2023/05/29 05:54:03;;;;;;;5.17;2.90;;;13.70;99.90;;;14.53;100.00;98383.06;5016813;28;20462;-77
2023/05/29 05:56:33;;;;;;;8.73;3.20;;;13.80;99.90;;;14.59;100.00;98382.22;5019031;28;20470;-77
2023/05/29 05:59:02;;;;;;;4.83;2.80;;;13.80;99.90;;;14.66;100.00;98391.94;5018016;28;20475;-77
2023/05/29 06:01:31;;;;;;;5.77;3.17;;;13.90;99.90;;;14.74;100.00;98391.75;5019304;28;20466;-77
2023/05/29 06:03:59;;;;;;;7.67;3.03;;;14.00;99.90;;;14.81;100.00;98387.28;5017565;28;21003;-76
2023/05/29 06:06:28;;;;;;;7.97;3.20;;;14.00;99.90;;;14.87;100.00;98384.63;5016892;28;20508;-77
2023/05/29 06:08:58;;;;;;;6.83;3.23;;;14.00;99.90;;;14.93;100.00;98394.31;5018843;28;20474;-78
2023/05/29 06:11:26;;;;;;;10.43;4.17;;;14.10;99.90;;;14.98;100.00;98386.63;5017913;28;20489;-77
2023/05/29 06:13:56;;;;;;;33.63;3.90;;;14.10;99.90;;;15.04;100.00;98385.78;5017212;28;21127;-77
2023/05/29 06:16:25;;;;;;;7.43;3.20;;;14.20;99.90;;;15.10;100.00;98387.59;5018956;28;20461;-77
2023/05/29 06:18:54;;;;;;;7.53;2.87;;;14.20;99.90;;;15.17;100.00;98390.22;5018125;28;21019;-77
2023/05/29 06:21:23;;;;;;;5.80;2.80;;;14.40;99.90;;;15.22;100.00;98392.22;5018243;28;20520;-77
2023/05/29 06:23:54;;;;;;;7.70;3.30;;;14.40;99.90;;;15.25;100.00;98399.72;5020925;28;20965;-77
2023/05/29 06:26:24;;;;;;;5.30;3.33;;;14.40;99.90;;;15.29;100.00;98404.38;5017353;28;20477;-76
2023/05/29 06:28:53;;;;;;;5.23;3.30;;;14.40;99.90;;;15.34;100.00;98404.53;5020043;28;20541;-77
2023/05/29 06:31:23;;;;;;;8.50;3.60;;;14.50;99.90;;;15.40;100.00;98403.72;5017753;28;20493;-78
2023/05/29 06:33:52;;;;;;;7.70;3.50;;;14.50;99.90;;;15.45;100.00;98393.34;5019801;28;20528;-78
2023/05/29 06:36:21;;;;;;;6.73;3.57;;;14.70;99.90;;;15.49;100.00;98399.84;5018866;28;21231;-78
2023/05/29 06:38:50;;;;;;;8.43;3.63;;;14.70;99.90;;;15.53;100.00;98395.78;5019475;28;20470;-78
2023/05/29 06:41:19;;;;;;;10.90;3.77;;;14.70;99.90;;;15.58;100.00;98393.31;5017159;28;20478;-78
2023/05/29 06:43:48;;;;;;;8.60;3.67;;;14.70;99.90;;;15.62;100.00;98396.34;5017476;28;20462;-78
2023/05/29 06:46:17;;;;;;;4.80;3.23;;;14.70;99.90;;;15.67;100.00;98395.72;5019283;28;20470;-78
2023/05/29 06:48:47;;;;;;;4.43;3.13;;;14.80;99.90;;;15.74;100.00;98402.59;5017653;28;20477;-78
2023/05/29 06:51:17;;;;;;;55.67;30.27;;;15.00;99.90;;;15.79;100.00;98404.59;5017920;28;22078;-76
2023/05/29 06:53:45;;;;;;;7.70;3.43;;;15.00;99.90;;;15.82;100.00;98412.09;5015844;28;20458;-77
2023/05/29 06:56:15;;;;;;;7.63;4.00;;;15.10;99.90;;;15.85;100.00;98404.56;5015833;28;20899;-78
2023/05/29 06:58:45;;;;;;;7.23;3.07;;;15.00;99.90;;;15.89;100.00;98410.22;5016477;28;20960;-78
2023/05/29 07:01:14;;;;;;;8.73;3.37;;;15.00;99.90;;;15.94;100.00;98402.47;5016805;28;21180;-78
2023/05/29 07:03:44;;;;;;;11.50;4.37;;;15.10;99.90;;;15.99;100.00;98394.72;5015886;28;20528;-78
2023/05/29 07:06:17;;;;;;;4.50;3.10;;;15.20;99.90;;;16.06;100.00;98400.78;5018090;28;20475;-79
2023/05/29 07:08:46;;;;;;;8.20;4.63;;;15.20;99.90;;;16.08;100.00;98399.53;5017867;28;20462;-78
2023/05/29 07:11:15;;;;;;;5.17;2.70;;;15.20;99.90;;;16.13;100.00;98400.72;5013676;28;20995;-78
2023/05/29 07:13:45;;;;;;;12.90;3.70;;;15.20;99.90;;;16.20;100.00;98398.84;5016963;28;20551;-78
2023/05/29 07:16:13;;;;;;;11.30;4.00;;;15.30;99.90;;;16.24;100.00;98403.50;5018316;28;20467;-75
2023/05/29 07:18:52;;;;;;;18.17;8.37;;;15.40;99.90;;;16.29;100.00;98398.38;5018541;28;20553;-78
2023/05/29 07:21:23;;;;;;;8.67;3.63;;;15.50;99.90;;;16.32;100.00;98400.56;5016951;28;20466;-78
2023/05/29 07:23:51;;;;;;;49.73;27.43;;;15.40;99.90;;;16.38;100.00;98402.34;5016870;28;20471;-80
2023/05/29 07:26:20;;;;;;;10.13;4.17;;;15.50;99.90;;;16.42;100.00;98408.81;5013442;28;20955;-80
2023/05/29 07:28:49;;;;;;;6.17;2.77;;;15.60;99.90;;;16.47;100.00;98401.06;5017499;28;20468;-79
2023/05/29 07:31:17;;;;;;;7.77;3.70;;;15.60;99.90;;;16.56;100.00;98406.91;5014195;28;20995;-79
2023/05/29 07:33:46;;;;;;;6.37;3.10;;;15.80;99.90;;;16.60;100.00;98406.28;5015732;28;20564;-79
2023/05/29 07:36:17;;;;;;;4.13;2.83;;;15.80;99.90;;;16.62;100.00;98405.25;5016208;28;20477;-79
2023/05/29 07:38:47;;;;;;;5.63;2.93;;;15.80;99.90;;;16.68;100.00;98414.94;5015244;28;20502;-78
2023/05/29 07:41:17;;;;;;;7.60;3.00;;;15.90;99.90;;;16.70;100.00;98413.69;5016230;28;20512;-79
2023/05/29 07:43:50;;;;;;;8.43;3.20;;;15.80;99.90;;;16.76;100.00;98414.69;5015490;28;20501;-78
2023/05/29 07:46:19;;;;;;;4.23;2.83;;;15.90;99.90;;;16.80;100.00;98421.94;5018467;28;20509;-78
2023/05/29 07:48:47;;;;;;;6.77;2.70;;;16.00;99.90;;;16.84;100.00;98411.75;5015569;28;20525;-78
2023/05/29 07:51:16;;;;;;;6.17;2.80;;;16.00;99.90;;;16.87;100.00;98411.34;5017746;28;20467;-79
2023/05/29 07:53:47;;;;;;;4.63;2.73;;;16.00;99.90;;;16.93;100.00;98418.38;5017984;28;20506;-78
2023/05/29 07:56:16;;;;;;;6.87;3.27;;;16.10;99.90;;;17.02;100.00;98422.34;5020779;28;20466;-78
2023/05/29 07:58:46;;;;;;;5.63;2.90;;;16.20;99.90;;;17.06;100.00;98423.53;5017325;28;20462;-79
2023/05/29 08:01:14;;;;;;;6.00;3.17;;;16.20;99.90;;;17.09;100.00;98423.09;5019052;28;20465;-79
2023/05/29 08:03:43;;;;;;;6.13;3.03;;;16.20;99.90;;;17.13;100.00;98429.56;5015493;28;20489;-78
2023/05/29 08:06:12;;;;;;;13.77;2.93;;;16.20;99.90;;;17.17;100.00;98420.16;5017058;28;20474;-79
2023/05/29 08:08:42;;;;;;;11.63;3.50;;;16.30;99.90;;;17.24;100.00;98422.72;5015662;28;20836;-78
2023/05/29 08:11:12;;;;;;;4.30;2.63;;;16.40;99.90;;;17.28;100.00;98410.69;5003651;28;20476;-78
2023/05/29 08:13:42;;;;;;;7.63;2.93;;;16.50;99.90;;;17.34;100.00;98415.09;5018480;28;20501;-79
2023/05/29 08:16:14;;;;;;;6.97;3.20;;;16.50;99.90;;;17.39;100.00;98415.25;5018804;28;20505;-78
2023/05/29 08:18:42;;;;;;;9.30;3.67;;;16.50;99.90;;;17.43;100.00;98419.03;5023242;28;20508;-79
2023/05/29 08:21:12;;;;;;;15.60;3.70;;;16.50;99.90;;;17.49;99.71;98420.81;5022191;28;20474;-78
2023/05/29 08:23:41;;;;;;;3.87;2.50;;;16.60;99.90;;;17.55;99.26;98417.28;5019268;28;20501;-78
2023/05/29 08:26:10;;;;;;;4.57;3.13;;;16.70;99.90;;;17.64;100.00;98415.16;5006940;28;20539;-79
2023/05/29 08:28:40;;;;;;;11.37;3.97;;;16.80;99.90;;;17.71;98.67;98407.94;5021118;28;20473;-76
2023/05/29 08:31:10;;;;;;;8.10;3.77;;;17.00;99.90;;;17.77;98.15;98410.50;5021892;28;20470;-80
2023/05/29 08:33:39;;;;;;;5.53;2.90;;;17.00;99.90;;;17.82;100.00;98415.13;5017813;28;20504;-80
2023/05/29 08:36:08;;;;;;;4.60;2.90;;;17.00;99.90;;;17.85;98.86;98412.03;5018823;28;20525;-80
2023/05/29 08:38:37;;;;;;;4.27;3.00;;;17.00;99.90;;;17.91;98.12;98419.88;5017728;28;20458;-81
2023/05/29 08:41:09;;;;;;;5.93;2.63;;;17.10;99.90;;;17.97;94.60;98411.06;5020561;28;20467;-79
2023/05/29 08:43:43;;;;;;;9.00;2.90;;;17.10;99.90;;;18.02;95.25;98394.50;5021313;28;20972;-79
2023/05/29 08:46:14;;;;;;;5.00;2.80;;;17.10;99.90;;;18.07;95.63;98407.88;5021779;28;20836;-79
2023/05/29 08:48:49;;;;;;;6.80;3.10;;;17.20;99.90;;;18.10;96.31;98405.56;5018695;28;20510;-79
2023/05/29 08:51:22;;;;;;;9.63;3.30;;;17.20;99.90;;;18.15;95.83;98402.25;5023251;28;20481;-78
2023/05/29 08:53:52;;;;;;;11.43;3.20;;;17.30;99.90;;;18.19;95.87;98408.69;5022083;28;20505;-79
2023/05/29 08:56:22;;;;;;;5.40;2.43;;;17.40;99.90;;;18.25;94.72;98407.81;5019760;28;20504;-80
2023/05/29 08:59:03;;;;;;;8.90;3.00;;;17.50;99.90;;;18.34;95.88;98402.97;5020992;28;20971;-79
2023/05/29 09:01:36;;;;;;;5.17;2.80;;;17.60;99.90;;;18.39;95.75;98403.13;5021789;28;20956;-79
2023/05/29 09:04:05;;;;;;;4.70;2.50;;;17.60;99.90;;;18.43;97.61;98399.75;5021266;28;20516;-80
2023/05/29 09:06:34;;;;;;;8.60;3.07;;;17.70;99.90;;;18.49;95.30;98401.50;5022092;28;20532;-79
2023/05/29 09:09:05;;;;;;;5.83;3.10;;;17.70;99.90;;;18.57;94.37;98401.19;5020838;28;20533;-79
2023/05/29 09:11:34;;;;;;;7.57;2.97;;;17.80;99.90;;;18.63;93.99;98399.47;5019491;28;20474;-79
2023/05/29 09:14:04;;;;;;;9.20;3.13;;;17.90;99.90;;;18.70;89.34;98399.38;5017095;28;20497;-78
2023/05/29 09:16:33;;;;;;;9.97;2.90;;;17.90;99.10;;;18.85;87.00;98394.41;5018687;28;21074;-80
2023/05/29 09:19:08;;;;;;;7.00;2.87;;;18.20;98.80;;;18.95;82.90;98402.59;5020366;28;20462;-79
2023/05/29 09:21:41;;;;;;;8.70;2.60;;;18.20;97.60;;;19.00;82.39;98400.03;5018584;28;20517;-80
2023/05/29 09:24:09;;;;;;;3.97;2.73;;;18.20;97.60;;;19.10;79.79;98401.06;5023624;28;20569;-80
2023/05/29 09:26:39;;;;;;;5.70;2.87;;;18.40;97.00;;;19.18;79.00;98407.88;5020720;28;20500;-79
2023/05/29 09:29:12;;;;;;;3.97;2.67;;;18.40;96.80;;;19.23;78.57;98402.66;5019892;28;20482;-78
2023/05/29 09:31:47;;;;;;;5.70;2.50;;;18.60;96.70;;;19.34;78.50;98407.13;5020265;28;20449;-80
2023/05/29 09:34:16;;;;;;;4.93;2.60;;;18.60;96.60;;;19.40;76.77;98422.09;5016631;28;21031;-79
2023/05/29 09:36:45;;;;;;;6.43;3.00;;;18.70;96.20;;;19.47;73.76;98417.50;5015732;28;20473;-79
2023/05/29 09:39:15;;;;;;;9.23;3.70;;;18.80;95.40;;;19.52;73.47;98417.63;5020510;28;20458;-79
2023/05/29 09:41:48;;;;;;;8.03;2.97;;;18.80;95.40;;;19.61;71.50;98423.34;5018317;28;20470;-80
2023/05/29 09:44:19;;;;;;;7.70;3.27;;;18.90;94.80;;;19.67;70.39;98418.97;5019070;28;20527;-79
2023/05/29 09:46:50;;;;;;;5.20;2.60;;;19.10;94.70;;;19.70;70.10;98408.69;5017465;28;20471;-80
2023/05/29 09:49:24;;;;;;;7.00;3.20;;;19.00;94.60;;;19.78;70.27;98416.28;5019111;28;20466;-79
2023/05/29 09:51:55;;;;;;;3.57;2.40;;;19.20;94.60;;;19.82;71.63;98416.63;5018520;28;20475;-79
2023/05/29 09:54:29;;;;;;;6.13;3.03;;;19.10;95.10;;;19.87;73.04;98411.38;5016175;28;20615;-79
2023/05/29 09:57:00;;;;;;;72.23;40.60;;;19.20;95.40;;;19.86;72.03;98420.38;5019437;28;20466;-78
2023/05/29 09:59:34;;;;;;;9.23;4.30;;;19.10;95.10;;;19.92;72.71;98414.94;5020049;28;20490;-79
2023/05/29 10:02:06;;;;;;;8.87;3.60;;;19.20;95.30;;;19.96;72.97;98413.41;5017584;28;20471;-78
2023/05/29 10:04:36;;;;;;;6.97;3.37;;;19.30;95.30;;;19.98;72.06;98413.19;5017112;28;20485;-79
2023/05/29 10:07:11;;;;;;;11.53;3.13;;;19.30;95.10;;;20.06;72.72;98412.81;5017632;28;20458;-79
2023/05/29 10:09:48;;;;;;;6.60;2.97;;;19.30;95.50;;;20.08;69.74;98408.06;5017849;28;20468;-79
2023/05/29 10:12:22;;;;;;;4.17;3.17;;;19.30;94.50;;;20.10;69.73;98409.44;5019813;28;20560;-78
2023/05/29 10:14:56;;;;;;;5.10;2.83;;;19.30;94.60;;;20.16;68.39;98409.53;5017773;28;20485;-79
2023/05/29 10:17:33;;;;;;;8.13;3.10;;;19.40;94.20;;;20.18;69.12;98410.09;4985973;28;20481;-78
2023/05/29 10:20:08;;;;;;;7.33;3.10;;;19.40;94.50;;;20.25;68.39;98410.72;5020085;28;21053;-78
2023/05/29 10:22:46;;;;;;;12.97;3.80;;;19.50;94.20;;;20.29;67.77;98403.94;5020833;28;20463;-79
2023/05/29 10:25:18;;;;;;;8.97;2.83;;;19.50;94.00;;;20.29;68.22;98407.41;5004320;28;20478;-80